Decoded Metar for LYPG (PODGORICA in SERBIA) (IATA:TGD) | Meteo·Mobile Aviation Weather
aviador You're here:

LYPG Decoded Metar

PODGORICA in SERBIA
Report Time2018-08-21 16:00:00
UTC Time2018-08-21 16:07:43
Flight Rules vfr VFR
Wind200° at 05 kt
W.Decomp.*RWY 18: 4.8 kt HW 1.5 kt RCW
W.Rank200° ranks 15
Current wind is above 200° avg. (4.1)
Visibility9999 m
Phenomena:N/A
Clouds:Few 040 Hf
Expected CloudBase > 10,400 ft AGL from Temp-Dew spread
CeilingNone
Temp34°C (ISA +19)
Dew Point08°C (20% RH)
Heat Index32.0°C
AAT31.7°C
QNH1011 hPa
Density Alt2,549 ft
Elevation141 ft
Report Wrong Elevation
Raw Report
METAR LYPG 211600Z 20005KT 160V220 9999 FEW040 34/08 Q1011 NOSIG=

Extra information for LYPG:More info

Metar Taf Metar & Taf Last 4 Metars F.Rules Stats Wind Profile Meteogram Temp Stats Airport Information Weather charts Add Link Nearby VenuesMetar ALERT Operation Metar Decoded Social comments